AirNav   Air Wisconsin Up To $57,000 Bonus
 
 1174 users online  

N27 Bradford County Airport
Towanda, Pennsylvania, USA

GOING TO TOWANDA?


FAA INFORMATION EFFECTIVE 02 JANUARY 2020

Location

FAA Identifier: N27
Lat/Long: 41-44-24.0000N 076-26-49.7000W
41-44.400000N 076-26.828333W
41.7400000,-76.4471389
(estimated)
Elevation: 730.3 ft. / 222.6 m (surveyed)
Variation: 12W (2000)
From city: 2 miles S of TOWANDA, PA
Time zone: UTC -5 (UTC -4 during Daylight Saving Time)
Zip code: 18848

Airport Operations

Airport use: Open to the public
Activation date: 07/1938
Control tower: no
ARTCC: NEW YORK CENTER
FSS: WILLIAMSPORT FLIGHT SERVICE STATION
NOTAMs facility: IPT (NOTAM-D service available)
Attendance: M-F 0800-1700, MAR-OCT SAT-SUN 0800-1600, NOV-FEB SAT-SUN UNATTENDED
FOR SVC AFT HRS CALL 570-637-4902.
Wind indicator: lighted
Segmented circle: yes
Lights: ACTVT REIL RWY 05 & 23; PAPI RWY 05 & 23; MIRL RWY 05/23 - 123.0.
Beacon: white-green (lighted land airport)
Operates sunset to sunrise.

Airport Communications

CTAF/UNICOM: 123.0
WX AWOS-3: 119.925 (570-265-1024)
BINGHAMTON APPROACH: 118.6
BINGHAMTON DEPARTURE: 118.6
  • APCH/DEP SVC PRVDD BY NEW YORK ARTCC ON FREQS 132.175/298.9 (ELK MOUNTAIN RCAG) WHEN BINGHAMTON APCH CTL CLSD.

Nearby radio navigation aids

VOR radial/distance  VOR name  Freq  Var
FQMr040/28.2WILLIAMSPORT VOR/DME114.4009W
CFBr219/28.6BINGHAMTON VOR/DME112.2010W
ULWr141/33.4ELMIRA VOR/DME109.6512W

 
NDB name  Hdg/Dist  Freq  Var  ID
ALPINE167/33.124512WALP .- .-.. .--.

Airport Services

Fuel available: 100LL JET-A
Parking: hangars and tiedowns
Airframe service: MAJOR
Powerplant service: MAJOR
Bottled oxygen: NONE
Bulk oxygen: NONE

Runway Information

Runway 5/23

Dimensions: 4301 x 75 ft. / 1311 x 23 m
Surface: asphalt, in fair condition
Weight bearing capacity: 
Single wheel: 12.0
Runway edge lights: medium intensity
RUNWAY 5  RUNWAY 23
Latitude: 41-44.110687N41-44.690593N
Longitude: 076-27.099407W076-26.556652W
Elevation: 730.2 ft.713.5 ft.
Traffic pattern: leftleft
Runway heading: 047 magnetic, 035 true227 magnetic, 215 true
Markings: nonprecision, in fair conditionnonprecision, in fair condition
Visual slope indicator: 2-light PAPI on left (3.00 degrees glide path)2-light PAPI on left (3.00 degrees glide path)
Runway end identifier lights: yesyes
Touchdown point: yes, no lightsyes, no lights

Airport Ownership and Management from official FAA records

Ownership: Publicly-owned
Owner: BRADFORD COUNTY AIRPORT AUTHORITY
415 AIRPORT RD.
TOWANDA, PA 18848
Phone 570-265-4900
Manager: KIERAN SPAULDING
415 AIRPORT RD.
TOWANDA, PA 18848
Phone 570-265-4900

Airport Operational Statistics

Aircraft based on the field: 21
Single engine airplanes: 20
Multi engine airplanes: 1
    
Aircraft operations: avg 63/day *
65% transient general aviation
35% local general aviation
<1% military
* for 12-month period ending 16 July 2019

Additional Remarks

COLD TEMPERATURE RESTRICTED AIRPORT. ALTITUDE CORRECTION REQUIRED AT OR BELOW -25C.
FOR CD CTC NEW YORK ARTCC AT 631-468-1425.

Instrument Procedures

NOTE: All procedures below are presented as PDF files. If you need a reader for these files, you should download the free Adobe Reader.

NOT FOR NAVIGATION. Please procure official charts for flight.
FAA instrument procedures published for use from 02 January 2020 at 0901Z to 30 January 2020 at 0900Z.

 
IAPs - Instrument Approach Procedures
RNAV (GPS) RWY 23 **CHANGED**   download (174KB)
RNAV (GPS)-A   download (167KB)
NOTE: Special Take-Off Minimums/Departure Procedures apply   download (283KB)

Other nearby airports with instrument procedures:

KCZG - Tri-Cities Airport (26 nm NE)
KELM - Elmira/Corning Regional Airport (32 nm NW)
9N3 - Seamans Field Airport (32 nm E)
KBGM - Greater Binghamton Airport/Edwin A Link Field (35 nm NE)
KIPT - Williamsport Regional Airport (37 nm SW)
 
Loc | Ops | Rwys | IFR | FBO | Links
Com | Nav | Svcs | Stats | Notes
Area around N27 (Bradford County Airport)
 
Road maps at: MapQuest Bing Google
 
Aerial photo
WARNING: Photo may not be current or correct
Aerial photo of N27 (Bradford County Airport)
looking southwest

Do you have a better or more recent aerial photo of Bradford County Airport that you would like to share? If so, please send us your photo.

 
Sectional chart

 
Airport distance calculator
Flying to Bradford County Airport? Find the distance to fly.

From to N27

Sunrise and sunset
Times for 25-Jan-2020
 Local
(UTC-5)
 Zulu
(UTC)
Morning civil twilight06:5511:55
Sunrise07:2512:25
Sunset17:1122:11
Evening civil twilight17:4122:41

Current date and time
Zulu (UTC)  25-Jan-2020 06:30:19
Local (UTC-5)  25-Jan-2020 01:30:19
 
METAR
KELM 
32nm NW 
250553Z AUTO 08006KT 10SM FEW055 FEW065 BKN120 07/M07 A3006 RMK AO2 SLP185 60000 T00671072 10089 20061 58013
KBGM 
35nm NE 
250553Z AUTO 13014KT 10SM CLR 03/M06 A3008 RMK AO2 SLP195 T00281056 10056 20028 56019
KIPT 
36nm SW 
250554Z AUTO 10013KT 10SM BKN050 BKN120 07/M09 A3006 RMK AO2 SLP182 T00671094 10078 20061 58021
KAVP 
40nm SE 
250554Z AUTO VRB06KT 10SM CLR 06/M11 A3012 RMK AO2 SLP200 T00561106 10083 20056 58015
KN38 
43nm W 
250615Z AUTO 14013KT 10SM BKN036 OVC041 04/M07 A3001 RMK AO2
KITH 
44nm N 
250556Z AUTO 12011G17KT 10SM OVC065 06/M08 A3008 RMK AO2 SLP192 T00561083 10078 20056 56013
KHZL 
50nm SE 
250616Z AUTO 11008G20KT 10SM CLR 03/M10 A3008 RMK AO2
TAF
KELM 
32nm NW 
250534Z 2506/2606 15007G17KT P6SM BKN035 OVC100 WS020/15040KT FM250900 13008KT P6SM -SHRA OVC035 WS020/14040KT TEMPO 2509/2512 4SM -RA BKN025 FM251200 10008KT 3SM -RA BR BKN015 OVC035 WS020/14040KT FM251500 10007KT 3SM -RA BR BKN008 OVC015 WS020/14040KT FM260000 VRB03KT P6SM OVC025
KBGM 
35nm NE 
250534Z 2506/2606 13012G20KT P6SM BKN045 OVC100 WS020/14040KT FM251000 12015G22KT P6SM OVC025 WS020/14045KT FM251200 12015G22KT 5SM -RA BR BKN015 OVC035 WS020/14045KT FM251600 12015G22KT 2SM -RA BR BKN007 OVC015 WS020/14055KT FM252000 13011G20KT 1 1/2SM -RA BR OVC006 FM260300 VRB03KT P6SM OVC013
KIPT 
36nm SW 
250537Z 2506/2606 10010KT P6SM OVC050 WS020/14035KT FM250900 09008KT 3SM RA OVC015 WS020/14040KT FM251500 13004KT 4SM -RA OVC009 FM251700 20005KT 6SM -RA OVC015 FM252000 27007KT P6SM OVC035
NOTAMs
Click for the latest NOTAMs
NOTAMs are issued by the DoD/FAA and will open in a separate window not controlled by AirNav.

 

 
 

FBO, Fuel Providers, and Aircraft Ground Support

  
 Business Name 
 
 Contact 
 
 Services / Description 
 
Fuel Prices
 
Comments
  
Bradford County Airport Authority 570-265-4900
no information available

If you are affiliated with Bradford County Airport Authority and would like to show here your services, contact info, web link, logo, and more, click here
100LL Jet A
SS $4.70 $3.59 
 Updated 14-Jan-2020
 
   2 read write
SS=Self service
Update Fuel Prices
 

Would you like to see your business listed on this page?

 If your business provides an interesting product or service to pilots, flight crews, aircraft, or users of the Bradford County Airport, you should consider listing it here.  To start the listing process, click on the button below
 
Add a business
 

Other Pages about Bradford County Airport

Update a link
 
Copyright © AirNav, LLC. All rights reserved. Privacy Policy  Contact